sensor_id;sensor_type;location;lat;lon;timestamp;P1;durP1;ratioP1;P2;durP2;ratioP2
56893;SDS011;43392;50.078;13.704;2022-11-20T00:02:42;107.80;;;44.17;;
56893;SDS011;43392;50.078;13.704;2022-11-20T00:05:08;108.10;;;43.20;;
56893;SDS011;43392;50.078;13.704;2022-11-20T00:07:35;106.90;;;44.40;;
56893;SDS011;43392;50.078;13.704;2022-11-20T00:10:02;104.50;;;42.97;;
56893;SDS011;43392;50.078;13.704;2022-11-20T00:12:29;98.30;;;43.10;;
56893;SDS011;43392;50.078;13.704;2022-11-20T00:14:55;102.00;;;40.53;;
56893;SDS011;43392;50.078;13.704;2022-11-20T00:17:23;102.67;;;44.43;;
56893;SDS011;43392;50.078;13.704;2022-11-20T00:19:50;100.57;;;44.27;;
56893;SDS011;43392;50.078;13.704;2022-11-20T00:22:16;102.53;;;42.60;;
56893;SDS011;43392;50.078;13.704;2022-11-20T00:24:43;96.80;;;40.90;;
56893;SDS011;43392;50.078;13.704;2022-11-20T00:27:10;95.87;;;41.00;;
56893;SDS011;43392;50.078;13.704;2022-11-20T00:29:36;86.43;;;40.20;;
56893;SDS011;43392;50.078;13.704;2022-11-20T00:32:03;92.60;;;40.30;;
56893;SDS011;43392;50.078;13.704;2022-11-20T00:34:31;90.93;;;39.57;;
56893;SDS011;43392;50.078;13.704;2022-11-20T00:36:58;89.57;;;40.70;;
56893;SDS011;43392;50.078;13.704;2022-11-20T00:39:24;96.33;;;40.70;;
56893;SDS011;43392;50.078;13.704;2022-11-20T00:41:51;94.83;;;41.20;;
56893;SDS011;43392;50.078;13.704;2022-11-20T00:44:17;87.33;;;38.07;;
56893;SDS011;43392;50.078;13.704;2022-11-20T00:46:44;93.57;;;39.10;;
56893;SDS011;43392;50.078;13.704;2022-11-20T00:49:10;93.60;;;39.33;;
56893;SDS011;43392;50.078;13.704;2022-11-20T00:51:38;103.57;;;43.70;;
56893;SDS011;43392;50.078;13.704;2022-11-20T00:54:05;101.27;;;43.53;;
56893;SDS011;43392;50.078;13.704;2022-11-20T00:56:32;94.10;;;40.93;;
56893;SDS011;43392;50.078;13.704;2022-11-20T00:58:59;107.43;;;43.07;;
56893;SDS011;43392;50.078;13.704;2022-11-20T01:01:26;108.63;;;44.07;;
56893;SDS011;43392;50.078;13.704;2022-11-20T01:03:55;97.93;;;42.53;;
56893;SDS011;43392;50.078;13.704;2022-11-20T01:06:24;100.20;;;40.90;;
56893;SDS011;43392;50.078;13.704;2022-11-20T01:08:54;95.50;;;41.20;;
56893;SDS011;43392;50.078;13.704;2022-11-20T01:11:22;94.50;;;38.67;;
56893;SDS011;43392;50.078;13.704;2022-11-20T01:13:50;100.33;;;39.80;;
56893;SDS011;43392;50.078;13.704;2022-11-20T01:16:20;95.50;;;40.03;;
56893;SDS011;43392;50.078;13.704;2022-11-20T01:18:48;87.47;;;38.37;;
56893;SDS011;43392;50.078;13.704;2022-11-20T01:21:16;95.70;;;40.07;;
56893;SDS011;43392;50.078;13.704;2022-11-20T01:23:44;94.23;;;38.33;;
56893;SDS011;43392;50.078;13.704;2022-11-20T01:26:14;99.77;;;40.30;;
56893;SDS011;43392;50.078;13.704;2022-11-20T01:28:42;95.00;;;39.90;;
56893;SDS011;43392;50.078;13.704;2022-11-20T01:31:12;99.03;;;40.83;;
56893;SDS011;43392;50.078;13.704;2022-11-20T01:33:40;103.43;;;42.93;;
56893;SDS011;43392;50.078;13.704;2022-11-20T01:36:07;99.83;;;40.60;;
56893;SDS011;43392;50.078;13.704;2022-11-20T01:38:35;95.63;;;41.20;;
56893;SDS011;43392;50.078;13.704;2022-11-20T01:41:01;103.50;;;40.47;;
56893;SDS011;43392;50.078;13.704;2022-11-20T01:43:29;90.67;;;38.33;;
56893;SDS011;43392;50.078;13.704;2022-11-20T01:46:04;96.40;;;40.03;;
56893;SDS011;43392;50.078;13.704;2022-11-20T01:48:34;93.03;;;38.60;;
56893;SDS011;43392;50.078;13.704;2022-11-20T01:51:05;102.77;;;40.00;;
56893;SDS011;43392;50.078;13.704;2022-11-20T01:53:36;90.73;;;38.53;;
56893;SDS011;43392;50.078;13.704;2022-11-20T01:56:05;90.20;;;37.40;;
56893;SDS011;43392;50.078;13.704;2022-11-20T01:58:37;84.13;;;37.53;;
56893;SDS011;43392;50.078;13.704;2022-11-20T02:01:07;91.23;;;39.20;;
56893;SDS011;43392;50.078;13.704;2022-11-20T02:03:34;89.63;;;37.60;;
56893;SDS011;43392;50.078;13.704;2022-11-20T02:06:03;83.97;;;36.63;;
56893;SDS011;43392;50.078;13.704;2022-11-20T02:08:36;82.90;;;36.50;;
56893;SDS011;43392;50.078;13.704;2022-11-20T02:11:04;84.07;;;35.57;;
56893;SDS011;43392;50.078;13.704;2022-11-20T02:13:30;77.30;;;33.93;;
56893;SDS011;43392;50.078;13.704;2022-11-20T02:16:10;81.13;;;34.80;;
56893;SDS011;43392;50.078;13.704;2022-11-20T02:18:40;83.03;;;36.13;;
56893;SDS011;43392;50.078;13.704;2022-11-20T02:21:09;81.00;;;34.80;;
56893;SDS011;43392;50.078;13.704;2022-11-20T02:23:58;75.53;;;34.30;;
56893;SDS011;43392;50.078;13.704;2022-11-20T02:26:27;84.03;;;35.67;;
56893;SDS011;43392;50.078;13.704;2022-11-20T02:28:56;74.50;;;34.70;;
56893;SDS011;43392;50.078;13.704;2022-11-20T02:31:23;81.07;;;35.73;;
56893;SDS011;43392;50.078;13.704;2022-11-20T02:33:53;89.40;;;38.67;;
56893;SDS011;43392;50.078;13.704;2022-11-20T02:38:48;82.67;;;36.80;;
56893;SDS011;43392;50.078;13.704;2022-11-20T02:41:16;88.33;;;38.20;;
56893;SDS011;43392;50.078;13.704;2022-11-20T02:43:43;88.60;;;38.03;;
56893;SDS011;43392;50.078;13.704;2022-11-20T02:46:10;91.43;;;40.07;;
56893;SDS011;43392;50.078;13.704;2022-11-20T02:48:36;84.47;;;37.73;;
56893;SDS011;43392;50.078;13.704;2022-11-20T02:51:03;91.60;;;38.10;;
56893;SDS011;43392;50.078;13.704;2022-11-20T02:53:30;90.13;;;38.20;;
56893;SDS011;43392;50.078;13.704;2022-11-20T02:55:56;85.57;;;37.17;;
56893;SDS011;43392;50.078;13.704;2022-11-20T02:58:24;86.30;;;37.90;;
56893;SDS011;43392;50.078;13.704;2022-11-20T03:00:51;82.73;;;38.17;;
56893;SDS011;43392;50.078;13.704;2022-11-20T03:03:18;84.73;;;38.03;;
56893;SDS011;43392;50.078;13.704;2022-11-20T03:05:45;84.17;;;37.30;;
56893;SDS011;43392;50.078;13.704;2022-11-20T03:08:11;87.17;;;38.50;;
56893;SDS011;43392;50.078;13.704;2022-11-20T03:10:38;83.77;;;37.20;;
56893;SDS011;43392;50.078;13.704;2022-11-20T03:13:04;80.93;;;36.57;;
56893;SDS011;43392;50.078;13.704;2022-11-20T03:15:32;85.93;;;38.73;;
56893;SDS011;43392;50.078;13.704;2022-11-20T03:17:59;87.03;;;37.93;;
56893;SDS011;43392;50.078;13.704;2022-11-20T03:20:25;92.07;;;40.07;;
56893;SDS011;43392;50.078;13.704;2022-11-20T03:22:53;84.87;;;37.17;;
56893;SDS011;43392;50.078;13.704;2022-11-20T03:25:20;86.10;;;37.07;;
56893;SDS011;43392;50.078;13.704;2022-11-20T03:27:47;78.57;;;35.23;;
56893;SDS011;43392;50.078;13.704;2022-11-20T03:30:14;79.30;;;35.53;;
56893;SDS011;43392;50.078;13.704;2022-11-20T03:32:42;83.00;;;35.77;;
56893;SDS011;43392;50.078;13.704;2022-11-20T03:35:09;83.60;;;37.33;;
56893;SDS011;43392;50.078;13.704;2022-11-20T03:37:35;77.87;;;34.87;;
56893;SDS011;43392;50.078;13.704;2022-11-20T03:40:02;82.20;;;35.23;;
56893;SDS011;43392;50.078;13.704;2022-11-20T03:42:30;75.30;;;34.50;;
56893;SDS011;43392;50.078;13.704;2022-11-20T03:45:11;85.70;;;37.90;;
56893;SDS011;43392;50.078;13.704;2022-11-20T03:47:38;80.53;;;34.03;;
56893;SDS011;43392;50.078;13.704;2022-11-20T03:50:07;77.97;;;35.93;;
56893;SDS011;43392;50.078;13.704;2022-11-20T03:52:34;81.63;;;36.60;;
56893;SDS011;43392;50.078;13.704;2022-11-20T03:55:01;79.00;;;35.50;;
56893;SDS011;43392;50.078;13.704;2022-11-20T03:57:28;73.60;;;35.43;;
56893;SDS011;43392;50.078;13.704;2022-11-20T03:59:54;84.53;;;36.20;;
56893;SDS011;43392;50.078;13.704;2022-11-20T04:02:21;81.10;;;36.40;;
56893;SDS011;43392;50.078;13.704;2022-11-20T04:04:47;79.37;;;34.37;;
56893;SDS011;43392;50.078;13.704;2022-11-20T04:07:15;82.13;;;36.10;;
56893;SDS011;43392;50.078;13.704;2022-11-20T04:09:42;74.23;;;34.27;;
56893;SDS011;43392;50.078;13.704;2022-11-20T04:12:09;77.93;;;34.73;;
56893;SDS011;43392;50.078;13.704;2022-11-20T04:14:35;76.90;;;35.67;;
56893;SDS011;43392;50.078;13.704;2022-11-20T04:17:03;76.53;;;35.10;;
56893;SDS011;43392;50.078;13.704;2022-11-20T04:19:29;81.00;;;35.83;;
56893;SDS011;43392;50.078;13.704;2022-11-20T04:21:56;81.97;;;36.07;;
56893;SDS011;43392;50.078;13.704;2022-11-20T04:24:24;78.30;;;35.30;;
56893;SDS011;43392;50.078;13.704;2022-11-20T04:26:50;72.77;;;33.67;;
56893;SDS011;43392;50.078;13.704;2022-11-20T04:29:17;82.13;;;37.57;;
56893;SDS011;43392;50.078;13.704;2022-11-20T04:31:43;84.97;;;38.77;;
56893;SDS011;43392;50.078;13.704;2022-11-20T04:34:10;84.53;;;38.07;;
56893;SDS011;43392;50.078;13.704;2022-11-20T04:36:37;83.13;;;37.73;;
56893;SDS011;43392;50.078;13.704;2022-11-20T04:39:04;78.80;;;36.40;;
56893;SDS011;43392;50.078;13.704;2022-11-20T04:41:34;79.93;;;37.70;;
56893;SDS011;43392;50.078;13.704;2022-11-20T04:44:02;79.18;;;36.88;;
56893;SDS011;43392;50.078;13.704;2022-11-20T04:46:31;78.83;;;35.87;;
56893;SDS011;43392;50.078;13.704;2022-11-20T04:48:59;74.80;;;34.67;;
56893;SDS011;43392;50.078;13.704;2022-11-20T04:51:26;72.63;;;34.27;;
56893;SDS011;43392;50.078;13.704;2022-11-20T04:53:53;76.37;;;35.33;;
56893;SDS011;43392;50.078;13.704;2022-11-20T04:56:19;78.20;;;36.00;;
56893;SDS011;43392;50.078;13.704;2022-11-20T04:58:48;74.40;;;33.30;;
56893;SDS011;43392;50.078;13.704;2022-11-20T05:01:15;71.87;;;32.37;;
56893;SDS011;43392;50.078;13.704;2022-11-20T05:03:44;72.90;;;33.97;;
56893;SDS011;43392;50.078;13.704;2022-11-20T05:06:12;76.77;;;35.30;;
56893;SDS011;43392;50.078;13.704;2022-11-20T05:08:40;79.73;;;35.03;;
56893;SDS011;43392;50.078;13.704;2022-11-20T05:11:07;75.30;;;34.67;;
56893;SDS011;43392;50.078;13.704;2022-11-20T05:13:35;74.57;;;33.60;;
56893;SDS011;43392;50.078;13.704;2022-11-20T05:16:04;76.77;;;35.17;;
56893;SDS011;43392;50.078;13.704;2022-11-20T05:18:32;79.13;;;34.83;;
56893;SDS011;43392;50.078;13.704;2022-11-20T05:20:59;73.87;;;31.80;;
56893;SDS011;43392;50.078;13.704;2022-11-20T05:23:26;72.03;;;33.53;;
56893;SDS011;43392;50.078;13.704;2022-11-20T05:25:53;72.30;;;33.03;;
56893;SDS011;43392;50.078;13.704;2022-11-20T05:28:21;68.63;;;32.20;;
56893;SDS011;43392;50.078;13.704;2022-11-20T05:30:48;70.67;;;32.63;;
56893;SDS011;43392;50.078;13.704;2022-11-20T05:33:16;69.63;;;31.73;;
56893;SDS011;43392;50.078;13.704;2022-11-20T05:35:43;66.87;;;31.43;;
56893;SDS011;43392;50.078;13.704;2022-11-20T05:38:10;70.30;;;31.53;;
56893;SDS011;43392;50.078;13.704;2022-11-20T05:40:37;66.57;;;31.80;;
56893;SDS011;43392;50.078;13.704;2022-11-20T05:43:03;66.40;;;32.23;;
56893;SDS011;43392;50.078;13.704;2022-11-20T05:45:30;61.07;;;29.07;;
56893;SDS011;43392;50.078;13.704;2022-11-20T05:47:57;65.63;;;29.20;;
56893;SDS011;43392;50.078;13.704;2022-11-20T05:50:25;61.33;;;29.03;;
56893;SDS011;43392;50.078;13.704;2022-11-20T05:52:52;63.60;;;28.80;;
56893;SDS011;43392;50.078;13.704;2022-11-20T05:55:19;68.80;;;34.83;;
56893;SDS011;43392;50.078;13.704;2022-11-20T05:57:45;63.07;;;28.33;;
56893;SDS011;43392;50.078;13.704;2022-11-20T06:00:13;65.37;;;28.47;;
56893;SDS011;43392;50.078;13.704;2022-11-20T06:02:40;62.93;;;28.67;;
56893;SDS011;43392;50.078;13.704;2022-11-20T06:05:07;61.13;;;28.67;;
56893;SDS011;43392;50.078;13.704;2022-11-20T06:07:35;61.93;;;29.00;;
56893;SDS011;43392;50.078;13.704;2022-11-20T06:10:02;59.77;;;29.83;;
56893;SDS011;43392;50.078;13.704;2022-11-20T06:12:31;64.77;;;30.30;;
56893;SDS011;43392;50.078;13.704;2022-11-20T06:14:58;74.20;;;32.20;;
56893;SDS011;43392;50.078;13.704;2022-11-20T06:17:25;68.13;;;29.50;;
56893;SDS011;43392;50.078;13.704;2022-11-20T06:19:52;45.07;;;21.90;;
56893;SDS011;43392;50.078;13.704;2022-11-20T06:22:19;47.47;;;19.17;;
56893;SDS011;43392;50.078;13.704;2022-11-20T06:24:47;45.90;;;21.13;;
56893;SDS011;43392;50.078;13.704;2022-11-20T06:27:13;47.10;;;21.60;;
56893;SDS011;43392;50.078;13.704;2022-11-20T06:29:40;43.53;;;21.27;;
56893;SDS011;43392;50.078;13.704;2022-11-20T06:32:07;51.67;;;23.53;;
56893;SDS011;43392;50.078;13.704;2022-11-20T06:34:33;48.67;;;23.37;;
56893;SDS011;43392;50.078;13.704;2022-11-20T06:37:00;54.93;;;27.50;;
56893;SDS011;43392;50.078;13.704;2022-11-20T06:39:26;53.23;;;26.63;;
56893;SDS011;43392;50.078;13.704;2022-11-20T06:41:54;55.20;;;26.20;;
56893;SDS011;43392;50.078;13.704;2022-11-20T06:44:22;61.87;;;27.40;;
56893;SDS011;43392;50.078;13.704;2022-11-20T06:46:48;54.17;;;25.20;;
56893;SDS011;43392;50.078;13.704;2022-11-20T06:49:15;55.43;;;25.87;;
56893;SDS011;43392;50.078;13.704;2022-11-20T06:51:42;55.67;;;25.47;;
56893;SDS011;43392;50.078;13.704;2022-11-20T06:54:08;68.63;;;31.47;;
56893;SDS011;43392;50.078;13.704;2022-11-20T06:56:35;67.67;;;33.83;;
56893;SDS011;43392;50.078;13.704;2022-11-20T06:59:05;69.17;;;33.40;;
56893;SDS011;43392;50.078;13.704;2022-11-20T07:01:32;62.88;;;30.60;;
56893;SDS011;43392;50.078;13.704;2022-11-20T07:04:00;60.83;;;28.07;;
56893;SDS011;43392;50.078;13.704;2022-11-20T07:06:27;57.73;;;26.73;;
56893;SDS011;43392;50.078;13.704;2022-11-20T07:08:53;52.33;;;25.08;;
56893;SDS011;43392;50.078;13.704;2022-11-20T07:11:20;50.83;;;22.97;;
56893;SDS011;43392;50.078;13.704;2022-11-20T07:13:47;48.23;;;21.83;;
56893;SDS011;43392;50.078;13.704;2022-11-20T07:16:15;46.08;;;22.52;;
56893;SDS011;43392;50.078;13.704;2022-11-20T07:18:42;49.30;;;21.42;;
56893;SDS011;43392;50.078;13.704;2022-11-20T07:21:09;59.83;;;25.87;;
56893;SDS011;43392;50.078;13.704;2022-11-20T07:23:36;46.57;;;22.80;;
56893;SDS011;43392;50.078;13.704;2022-11-20T07:26:03;50.13;;;22.58;;
56893;SDS011;43392;50.078;13.704;2022-11-20T07:28:30;48.20;;;20.80;;
56893;SDS011;43392;50.078;13.704;2022-11-20T07:30:57;46.45;;;22.98;;
56893;SDS011;43392;50.078;13.704;2022-11-20T07:33:25;50.60;;;24.63;;
56893;SDS011;43392;50.078;13.704;2022-11-20T07:35:52;44.00;;;21.88;;
56893;SDS011;43392;50.078;13.704;2022-11-20T07:38:18;42.38;;;21.20;;
56893;SDS011;43392;50.078;13.704;2022-11-20T07:40:45;41.88;;;19.90;;
56893;SDS011;43392;50.078;13.704;2022-11-20T07:43:11;44.67;;;19.85;;
56893;SDS011;43392;50.078;13.704;2022-11-20T07:45:38;40.13;;;19.60;;
56893;SDS011;43392;50.078;13.704;2022-11-20T07:48:05;36.35;;;17.95;;
56893;SDS011;43392;50.078;13.704;2022-11-20T07:50:33;40.75;;;17.75;;
56893;SDS011;43392;50.078;13.704;2022-11-20T07:53:00;41.17;;;18.52;;
56893;SDS011;43392;50.078;13.704;2022-11-20T07:55:28;39.88;;;18.67;;
56893;SDS011;43392;50.078;13.704;2022-11-20T07:57:55;39.53;;;18.63;;
56893;SDS011;43392;50.078;13.704;2022-11-20T08:00:22;37.90;;;18.50;;
56893;SDS011;43392;50.078;13.704;2022-11-20T08:02:49;41.80;;;19.50;;
56893;SDS011;43392;50.078;13.704;2022-11-20T08:05:15;38.85;;;20.13;;
56893;SDS011;43392;50.078;13.704;2022-11-20T08:07:44;44.75;;;19.67;;
56893;SDS011;43392;50.078;13.704;2022-11-20T08:10:11;42.22;;;19.05;;
56893;SDS011;43392;50.078;13.704;2022-11-20T08:12:43;42.95;;;21.63;;
56893;SDS011;43392;50.078;13.704;2022-11-20T08:15:27;49.22;;;23.50;;
56893;SDS011;43392;50.078;13.704;2022-11-20T08:17:58;48.13;;;21.90;;
56893;SDS011;43392;50.078;13.704;2022-11-20T08:20:26;50.63;;;22.63;;
56893;SDS011;43392;50.078;13.704;2022-11-20T08:22:58;48.08;;;21.67;;
56893;SDS011;43392;50.078;13.704;2022-11-20T08:25:25;47.67;;;21.45;;
56893;SDS011;43392;50.078;13.704;2022-11-20T08:27:52;48.28;;;21.90;;
56893;SDS011;43392;50.078;13.704;2022-11-20T08:30:19;46.33;;;22.95;;
56893;SDS011;43392;50.078;13.704;2022-11-20T08:32:45;49.42;;;24.27;;
56893;SDS011;43392;50.078;13.704;2022-11-20T08:35:12;46.03;;;23.80;;
56893;SDS011;43392;50.078;13.704;2022-11-20T08:37:39;49.30;;;22.95;;
56893;SDS011;43392;50.078;13.704;2022-11-20T08:40:08;46.20;;;21.67;;
56893;SDS011;43392;50.078;13.704;2022-11-20T08:42:36;55.97;;;22.57;;
56893;SDS011;43392;50.078;13.704;2022-11-20T08:45:03;52.08;;;24.35;;
56893;SDS011;43392;50.078;13.704;2022-11-20T08:47:30;48.28;;;23.85;;
56893;SDS011;43392;50.078;13.704;2022-11-20T08:49:57;47.50;;;21.38;;
56893;SDS011;43392;50.078;13.704;2022-11-20T08:52:23;52.00;;;22.92;;
56893;SDS011;43392;50.078;13.704;2022-11-20T08:54:50;43.28;;;20.00;;
56893;SDS011;43392;50.078;13.704;2022-11-20T08:57:18;47.22;;;21.25;;
56893;SDS011;43392;50.078;13.704;2022-11-20T08:59:45;49.15;;;21.30;;
56893;SDS011;43392;50.078;13.704;2022-11-20T09:02:11;48.55;;;21.55;;
56893;SDS011;43392;50.078;13.704;2022-11-20T09:04:38;60.75;;;25.80;;
56893;SDS011;43392;50.078;13.704;2022-11-20T09:07:05;52.75;;;23.63;;
56893;SDS011;43392;50.078;13.704;2022-11-20T09:09:31;51.92;;;24.00;;
56893;SDS011;43392;50.078;13.704;2022-11-20T09:11:58;49.75;;;23.95;;
56893;SDS011;43392;50.078;13.704;2022-11-20T09:14:26;48.22;;;22.75;;
56893;SDS011;43392;50.078;13.704;2022-11-20T09:16:55;46.40;;;21.50;;
56893;SDS011;43392;50.078;13.704;2022-11-20T09:19:23;51.72;;;22.67;;
56893;SDS011;43392;50.078;13.704;2022-11-20T09:21:49;46.50;;;22.20;;
56893;SDS011;43392;50.078;13.704;2022-11-20T09:24:16;43.40;;;18.38;;
56893;SDS011;43392;50.078;13.704;2022-11-20T09:26:43;66.45;;;31.67;;
56893;SDS011;43392;50.078;13.704;2022-11-20T09:29:09;50.13;;;25.20;;
56893;SDS011;43392;50.078;13.704;2022-11-20T09:31:38;50.97;;;25.58;;
56893;SDS011;43392;50.078;13.704;2022-11-20T09:34:04;46.17;;;25.08;;
56893;SDS011;43392;50.078;13.704;2022-11-20T09:36:31;46.90;;;26.08;;
56893;SDS011;43392;50.078;13.704;2022-11-20T09:38:58;46.60;;;23.13;;
56893;SDS011;43392;50.078;13.704;2022-11-20T09:41:32;42.75;;;20.35;;
56893;SDS011;43392;50.078;13.704;2022-11-20T09:44:24;37.78;;;19.30;;
56893;SDS011;43392;50.078;13.704;2022-11-20T09:47:02;37.67;;;16.90;;
56893;SDS011;43392;50.078;13.704;2022-11-20T09:49:36;39.72;;;18.42;;
56893;SDS011;43392;50.078;13.704;2022-11-20T09:52:21;69.40;;;33.47;;
56893;SDS011;43392;50.078;13.704;2022-11-20T09:54:57;86.38;;;47.15;;
56893;SDS011;43392;50.078;13.704;2022-11-20T09:57:29;55.10;;;34.13;;
56893;SDS011;43392;50.078;13.704;2022-11-20T10:00:00;58.67;;;33.15;;
56893;SDS011;43392;50.078;13.704;2022-11-20T10:02:34;45.83;;;23.00;;
56893;SDS011;43392;50.078;13.704;2022-11-20T10:05:06;47.67;;;23.13;;
56893;SDS011;43392;50.078;13.704;2022-11-20T10:07:40;40.88;;;19.83;;
56893;SDS011;43392;50.078;13.704;2022-11-20T10:10:14;41.85;;;21.40;;
56893;SDS011;43392;50.078;13.704;2022-11-20T10:12:48;58.45;;;28.75;;
56893;SDS011;43392;50.078;13.704;2022-11-20T10:15:28;49.97;;;25.52;;
56893;SDS011;43392;50.078;13.704;2022-11-20T10:18:13;38.20;;;20.02;;
56893;SDS011;43392;50.078;13.704;2022-11-20T10:20:50;40.33;;;20.05;;
56893;SDS011;43392;50.078;13.704;2022-11-20T10:26:21;38.13;;;18.25;;
56893;SDS011;43392;50.078;13.704;2022-11-20T10:28:56;41.35;;;19.70;;
56893;SDS011;43392;50.078;13.704;2022-11-20T10:31:37;40.78;;;19.95;;
56893;SDS011;43392;50.078;13.704;2022-11-20T10:34:07;44.03;;;20.98;;
56893;SDS011;43392;50.078;13.704;2022-11-20T10:36:43;51.63;;;22.65;;
56893;SDS011;43392;50.078;13.704;2022-11-20T10:41:43;42.92;;;22.05;;
56893;SDS011;43392;50.078;13.704;2022-11-20T10:44:14;46.75;;;22.00;;
56893;SDS011;43392;50.078;13.704;2022-11-20T10:47:03;50.08;;;22.52;;
56893;SDS011;43392;50.078;13.704;2022-11-20T10:49:32;45.65;;;21.05;;
56893;SDS011;43392;50.078;13.704;2022-11-20T10:52:03;45.00;;;21.23;;
56893;SDS011;43392;50.078;13.704;2022-11-20T10:54:36;46.20;;;21.95;;
56893;SDS011;43392;50.078;13.704;2022-11-20T10:57:14;43.95;;;20.65;;
56893;SDS011;43392;50.078;13.704;2022-11-20T11:02:32;43.40;;;20.88;;
56893;SDS011;43392;50.078;13.704;2022-11-20T11:05:14;43.45;;;21.52;;
56893;SDS011;43392;50.078;13.704;2022-11-20T11:07:49;42.10;;;21.75;;
56893;SDS011;43392;50.078;13.704;2022-11-20T11:10:20;43.85;;;22.13;;
56893;SDS011;43392;50.078;13.704;2022-11-20T11:12:51;50.33;;;23.58;;
56893;SDS011;43392;50.078;13.704;2022-11-20T11:15:25;44.50;;;22.38;;
56893;SDS011;43392;50.078;13.704;2022-11-20T11:17:53;47.33;;;22.00;;
56893;SDS011;43392;50.078;13.704;2022-11-20T11:20:21;44.08;;;20.90;;
56893;SDS011;43392;50.078;13.704;2022-11-20T11:22:50;41.15;;;19.45;;
56893;SDS011;43392;50.078;13.704;2022-11-20T11:25:18;46.15;;;22.92;;
56893;SDS011;43392;50.078;13.704;2022-11-20T11:27:51;43.22;;;19.75;;
56893;SDS011;43392;50.078;13.704;2022-11-20T11:30:20;44.65;;;20.25;;
56893;SDS011;43392;50.078;13.704;2022-11-20T11:32:46;42.78;;;20.52;;
56893;SDS011;43392;50.078;13.704;2022-11-20T11:35:22;47.42;;;22.90;;
56893;SDS011;43392;50.078;13.704;2022-11-20T11:37:51;44.72;;;21.95;;
56893;SDS011;43392;50.078;13.704;2022-11-20T11:40:20;49.00;;;23.77;;
56893;SDS011;43392;50.078;13.704;2022-11-20T11:42:50;50.67;;;23.83;;
56893;SDS011;43392;50.078;13.704;2022-11-20T11:45:21;53.67;;;23.50;;
56893;SDS011;43392;50.078;13.704;2022-11-20T11:47:47;52.08;;;23.15;;
56893;SDS011;43392;50.078;13.704;2022-11-20T11:50:18;56.05;;;25.70;;
56893;SDS011;43392;50.078;13.704;2022-11-20T11:52:50;53.50;;;24.13;;
56893;SDS011;43392;50.078;13.704;2022-11-20T11:55:26;59.00;;;27.15;;
56893;SDS011;43392;50.078;13.704;2022-11-20T11:57:59;58.83;;;27.27;;
56893;SDS011;43392;50.078;13.704;2022-11-20T12:00:35;54.47;;;26.25;;
56893;SDS011;43392;50.078;13.704;2022-11-20T12:03:06;58.60;;;29.45;;
56893;SDS011;43392;50.078;13.704;2022-11-20T12:05:40;56.63;;;28.60;;
56893;SDS011;43392;50.078;13.704;2022-11-20T12:08:13;69.65;;;35.00;;
56893;SDS011;43392;50.078;13.704;2022-11-20T12:10:45;78.65;;;37.00;;
56893;SDS011;43392;50.078;13.704;2022-11-20T12:13:20;91.00;;;41.33;;
56893;SDS011;43392;50.078;13.704;2022-11-20T12:15:52;71.13;;;35.58;;
56893;SDS011;43392;50.078;13.704;2022-11-20T12:18:19;61.90;;;30.67;;
56893;SDS011;43392;50.078;13.704;2022-11-20T12:20:52;51.05;;;26.35;;
56893;SDS011;43392;50.078;13.704;2022-11-20T12:23:38;58.97;;;29.13;;
56893;SDS011;43392;50.078;13.704;2022-11-20T12:26:13;53.63;;;29.13;;
56893;SDS011;43392;50.078;13.704;2022-11-20T12:28:51;56.72;;;28.10;;
56893;SDS011;43392;50.078;13.704;2022-11-20T12:31:27;57.55;;;28.70;;
56893;SDS011;43392;50.078;13.704;2022-11-20T12:34:12;56.92;;;26.92;;
56893;SDS011;43392;50.078;13.704;2022-11-20T12:36:49;58.65;;;27.60;;
56893;SDS011;43392;50.078;13.704;2022-11-20T12:42:27;55.30;;;24.77;;
56893;SDS011;43392;50.078;13.704;2022-11-20T12:45:28;61.40;;;28.25;;
56893;SDS011;43392;50.078;13.704;2022-11-20T12:48:14;49.42;;;24.85;;
56893;SDS011;43392;50.078;13.704;2022-11-20T12:50:51;55.20;;;26.05;;
56893;SDS011;43392;50.078;13.704;2022-11-20T12:53:33;60.30;;;26.83;;
56893;SDS011;43392;50.078;13.704;2022-11-20T12:56:10;74.00;;;41.95;;
56893;SDS011;43392;50.078;13.704;2022-11-20T12:58:49;82.60;;;40.45;;
56893;SDS011;43392;50.078;13.704;2022-11-20T13:01:29;119.45;;;57.65;;
56893;SDS011;43392;50.078;13.704;2022-11-20T13:04:07;82.53;;;39.95;;
56893;SDS011;43392;50.078;13.704;2022-11-20T13:06:39;63.40;;;32.67;;
56893;SDS011;43392;50.078;13.704;2022-11-20T13:09:07;65.25;;;34.55;;
56893;SDS011;43392;50.078;13.704;2022-11-20T13:11:40;66.70;;;33.92;;
56893;SDS011;43392;50.078;13.704;2022-11-20T13:14:24;77.57;;;38.33;;
56893;SDS011;43392;50.078;13.704;2022-11-20T13:16:58;86.32;;;42.28;;
56893;SDS011;43392;50.078;13.704;2022-11-20T13:19:30;78.13;;;37.85;;
56893;SDS011;43392;50.078;13.704;2022-11-20T13:21:58;91.32;;;43.13;;
56893;SDS011;43392;50.078;13.704;2022-11-20T13:24:25;102.35;;;55.92;;
56893;SDS011;43392;50.078;13.704;2022-11-20T13:27:03;97.38;;;45.25;;
56893;SDS011;43392;50.078;13.704;2022-11-20T13:29:43;61.35;;;28.48;;
56893;SDS011;43392;50.078;13.704;2022-11-20T13:32:13;55.83;;;27.05;;
56893;SDS011;43392;50.078;13.704;2022-11-20T13:34:50;65.57;;;31.42;;
56893;SDS011;43392;50.078;13.704;2022-11-20T13:37:24;60.50;;;29.90;;
56893;SDS011;43392;50.078;13.704;2022-11-20T13:40:04;74.18;;;34.80;;
56893;SDS011;43392;50.078;13.704;2022-11-20T13:42:34;66.80;;;31.92;;
56893;SDS011;43392;50.078;13.704;2022-11-20T13:45:08;65.70;;;33.78;;
56893;SDS011;43392;50.078;13.704;2022-11-20T13:47:46;81.00;;;38.40;;
56893;SDS011;43392;50.078;13.704;2022-11-20T13:50:14;64.03;;;32.92;;
56893;SDS011;43392;50.078;13.704;2022-11-20T13:52:44;71.97;;;35.83;;
56893;SDS011;43392;50.078;13.704;2022-11-20T13:55:18;62.90;;;33.17;;
56893;SDS011;43392;50.078;13.704;2022-11-20T13:58:04;62.22;;;30.48;;
56893;SDS011;43392;50.078;13.704;2022-11-20T14:00:43;58.67;;;28.90;;
56893;SDS011;43392;50.078;13.704;2022-11-20T14:03:14;78.28;;;38.97;;
56893;SDS011;43392;50.078;13.704;2022-11-20T14:05:46;95.05;;;45.97;;
56893;SDS011;43392;50.078;13.704;2022-11-20T14:08:20;85.95;;;40.25;;
56893;SDS011;43392;50.078;13.704;2022-11-20T14:11:01;80.10;;;38.38;;
56893;SDS011;43392;50.078;13.704;2022-11-20T14:13:30;72.78;;;34.58;;
56893;SDS011;43392;50.078;13.704;2022-11-20T14:15:57;74.78;;;35.42;;
56893;SDS011;43392;50.078;13.704;2022-11-20T14:18:25;77.63;;;36.55;;
56893;SDS011;43392;50.078;13.704;2022-11-20T14:20:52;79.82;;;38.35;;
56893;SDS011;43392;50.078;13.704;2022-11-20T14:23:23;63.95;;;31.92;;
56893;SDS011;43392;50.078;13.704;2022-11-20T14:25:51;69.43;;;36.33;;
56893;SDS011;43392;50.078;13.704;2022-11-20T14:28:20;82.13;;;42.00;;
56893;SDS011;43392;50.078;13.704;2022-11-20T14:30:52;69.68;;;37.47;;
56893;SDS011;43392;50.078;13.704;2022-11-20T14:33:21;67.15;;;35.30;;
56893;SDS011;43392;50.078;13.704;2022-11-20T14:35:50;58.40;;;27.95;;
56893;SDS011;43392;50.078;13.704;2022-11-20T14:38:19;57.42;;;28.00;;